Portada
METAR-TAF:

METAR-TAF

Aeroports :

Aeroport de Tànger Ibn Battuta

Tànger, Marroc

latitud: 35-44N, longitud: 005-54W, altitud: 19 m

Observació

L'informe es va fer fa 36 minuts, a les 19:30 UTC
Vent 8 kt del Est, variant entre Nord-Est i Est/Sud-Est
Temperatura 15°C
Humitat 77%
Pressió 1026 hPa
Visibilitat: 8000 m

METAR: GMTT 091930Z 09008KT 040V110 8000 NSC 15/11 Q1026 NOSIG

Hora: 20:06 (20:06 UTC)

Pronòstic

L'informe es va fer fa 3 hores i 6 minuts, a les 17:00 UTC
Pronòstic vàlid del 09 a les 18 UTC al 10 a les 24 UTC
Vent 12 kt del Est
Visibilitat: 8000 m

TAF: GMTT 091700Z 0918/1024 09012KT 8000 NSC

Observacions i pronòstics meteorològics de més de 4000 aeroports (METAR i TAF).

Les estacions disponibles són els punts grocs i vermells al mapa.

Posi el ratolí al punt desitjat per veure el nom de l'estació.

Feu clic per veure les observacions i els pronòstics meteorològics.

Per canviar el mapa: feu clic els botons verds amb una creu de color negre per apropar; al botó verd amb un guió per allunyar la imatge; o en les fletxes verdes per a mapes adjacents.


METAR-TAF: